Time,TemperatureF,DewpointF,PressureIn,WindDirection,WindDirectionDegrees,WindSpeedMPH,WindSpeedGustMPH,Humidity,HourlyPrecipIn,Conditions,Clouds,dailyrainin,SolarRadiationWatts/m^2,SoftwareType,DateUTC
2013-08-23 00:00:00,63.7,60.7,30.02,SE,127,1.0,5.0,90,0.00,-RA,OVC,0.00,0.0,WeatherDisplay:10.37,2013-08-22 23:00:00,
2013-08-23 00:31:00,63.6,60.3,30.01,SE,136,0.0,6.0,89,0.00,-RA,OVC,0.00,0.0,WeatherDisplay:10.37,2013-08-22 23:31:00,
2013-08-23 01:00:00,63.4,60.1,30.01,SE,138,0.0,3.0,89,0.00,-RA,OVC,0.00,0.0,WeatherDisplay:10.37,2013-08-23 00:00:00,
2013-08-23 01:30:00,63.4,60.1,30.00,ESE,114,0.0,6.0,89,0.00,-RA,OVC,0.00,0.0,WeatherDisplay:10.37,2013-08-23 00:30:00,
2013-08-23 02:00:00,63.5,60.2,30.00,SE,131,0.0,9.0,89,0.00,-RA,OVC,0.00,0.0,WeatherDisplay:10.37,2013-08-23 01:00:00,
2013-08-23 02:31:00,63.4,60.4,29.99,ESE,117,1.0,5.0,90,0.00,-RA,OVC,0.00,0.0,WeatherDisplay:10.37,2013-08-23 01:31:00,
2013-08-23 03:00:00,63.3,60.6,29.97,ESE,109,1.0,7.0,91,0.00,-RA,OVC,0.00,0.0,WeatherDisplay:10.37,2013-08-23 02:00:00,
2013-08-23 03:30:00,63.2,60.9,29.97,SE,133,3.0,10.0,92,0.00,-RA,OVC,0.00,0.0,WeatherDisplay:10.37,2013-08-23 02:30:00,
2013-08-23 04:00:00,62.9,60.5,29.96,SE,124,3.0,9.0,92,0.00,-RA,OVC,0.00,0.0,WeatherDisplay:10.37,2013-08-23 03:00:00,
2013-08-23 04:31:00,62.5,60.4,29.96,East,96,0.0,6.0,93,0.00,-RA,OVC,0.00,0.0,WeatherDisplay:10.37,2013-08-23 03:31:00,
2013-08-23 05:00:00,62.5,60.4,29.96,SE,125,6.0,12.0,93,0.00,-RA,OVC,0.00,0.0,WeatherDisplay:10.37,2013-08-23 04:00:00,
2013-08-23 05:31:00,62.4,60.1,29.96,SE,130,1.0,10.0,92,0.00,-RA,OVC,0.00,0.0,WeatherDisplay:10.37,2013-08-23 04:31:00,
2013-08-23 06:01:00,62.2,59.8,29.96,SE,145,0.0,9.0,92,0.00,-RA,OVC,0.00,5.0,WeatherDisplay:10.37,2013-08-23 05:01:00,
2013-08-23 06:31:00,62.1,60.0,29.96,SE,124,0.0,7.0,93,0.00,-RA,OVC,0.00,26.0,WeatherDisplay:10.37,2013-08-23 05:31:00,
2013-08-23 07:01:00,62.5,60.4,29.97,SE,132,1.0,6.0,93,0.00,-RA,OVC,0.00,72.0,WeatherDisplay:10.37,2013-08-23 06:01:00,
2013-08-23 07:31:00,63.4,61.0,29.96,SE,133,2.0,9.0,92,0.00,-RA,OVC,0.00,141.0,WeatherDisplay:10.37,2013-08-23 06:31:00,
2013-08-23 08:01:00,64.6,61.3,29.96,SE,143,2.0,8.0,89,0.00,-RA,OVC,0.00,223.0,WeatherDisplay:10.37,2013-08-23 07:01:00,
2013-08-23 08:31:00,66.2,61.5,29.96,SE,138,0.0,10.0,85,0.00,-RA,OVC,0.00,302.0,WeatherDisplay:10.37,2013-08-23 07:31:00,
2013-08-23 09:01:00,67.7,61.7,29.96,SE,144,1.0,10.0,81,0.00,-RA,OVC,0.00,366.0,WeatherDisplay:10.37,2013-08-23 08:01:00,
2013-08-23 09:31:00,69.1,62.0,29.95,SE,144,1.0,12.0,78,0.00,-RA,OVC,0.00,439.0,WeatherDisplay:10.37,2013-08-23 08:31:00,
2013-08-23 10:01:00,71.1,62.0,29.95,SSE,153,6.0,12.0,73,0.00,-RA,OVC,0.00,522.0,WeatherDisplay:10.37,2013-08-23 09:01:00,
2013-08-23 10:31:00,72.7,61.5,29.94,South,169,2.0,14.0,68,0.00,-RA,OVC,0.00,652.0,WeatherDisplay:10.37,2013-08-23 09:31:00,
2013-08-23 11:01:00,74.2,59.9,29.93,ESE,118,3.0,14.0,61,0.00,-RA,OVC,0.00,705.0,WeatherDisplay:10.37,2013-08-23 10:01:00,
2013-08-23 11:31:00,74.6,60.2,29.92,SSE,153,2.0,13.0,61,0.00,-RA,OVC,0.00,700.0,WeatherDisplay:10.37,2013-08-23 10:31:00,
2013-08-23 12:01:00,75.9,59.6,29.92,SE,125,2.0,12.0,57,0.00,-RA,OVC,0.00,290.0,WeatherDisplay:10.37,2013-08-23 11:01:00,
2013-08-23 12:31:00,76.7,59.3,29.91,SE,144,5.0,16.0,55,0.00,-RA,OVC,0.00,761.0,WeatherDisplay:10.37,2013-08-23 11:31:00,
2013-08-23 13:01:00,77.9,58.8,29.90,SE,136,2.0,15.0,52,0.00,-RA,OVC,0.00,443.0,WeatherDisplay:10.37,2013-08-23 12:01:00,
2013-08-23 13:31:00,79.4,58.0,29.90,SSE,161,1.0,15.0,48,0.00,-RA,OVC,0.00,694.0,WeatherDisplay:10.37,2013-08-23 12:31:00,
2013-08-23 14:01:00,79.3,57.9,29.89,SSE,149,3.0,14.0,48,0.00,-RA,OVC,0.00,647.0,WeatherDisplay:10.37,2013-08-23 13:01:00,
2013-08-23 14:31:00,78.9,56.9,29.89,SE,144,5.0,14.0,47,0.00,-RA,OVC,0.00,315.0,WeatherDisplay:10.37,2013-08-23 13:31:00,
2013-08-23 15:01:00,78.8,58.0,29.88,SE,146,1.0,12.0,49,0.00,-RA,OVC,0.00,260.0,WeatherDisplay:10.37,2013-08-23 14:01:00,
2013-08-23 15:31:00,78.7,57.9,29.87,ESE,123,0.0,7.0,49,0.00,-RA,OVC,0.00,251.0,WeatherDisplay:10.37,2013-08-23 14:31:00,
2013-08-23 16:01:00,78.2,61.3,29.87,ESE,105,0.0,10.0,56,0.00,-RA,OVC,0.00,172.0,WeatherDisplay:10.37,2013-08-23 15:01:00,
2013-08-23 16:31:00,77.1,61.1,29.86,SE,128,1.0,7.0,58,0.00,-RA,OVC,0.00,132.0,WeatherDisplay:10.37,2013-08-23 15:31:00,
2013-08-23 17:01:00,76.6,61.6,29.85,SE,132,0.0,9.0,60,0.00,-RA,OVC,0.00,118.0,WeatherDisplay:10.37,2013-08-23 16:01:00,
2013-08-23 17:31:00,75.5,62.1,29.84,ESE,121,2.0,12.0,63,0.00,-RA,OVC,0.00,72.0,WeatherDisplay:10.37,2013-08-23 16:31:00,
2013-08-23 18:01:00,74.4,62.3,29.84,SE,126,0.0,9.0,66,0.00,-RA,OVC,0.00,95.0,WeatherDisplay:10.37,2013-08-23 17:01:00,
2013-08-23 18:31:00,73.6,61.9,29.83,SE,132,1.0,9.0,67,0.00,-RA,OVC,0.00,67.0,WeatherDisplay:10.37,2013-08-23 17:31:00,
2013-08-23 19:01:00,72.2,61.5,29.83,ESE,110,2.0,7.0,69,0.00,-RA,OVC,0.00,30.0,WeatherDisplay:10.37,2013-08-23 18:01:00,
2013-08-23 19:31:00,71.3,61.0,29.83,ESE,123,2.0,12.0,70,0.00,-RA,OVC,0.00,9.0,WeatherDisplay:10.37,2013-08-23 18:31:00,
2013-08-23 20:01:00,70.8,60.9,29.84,ESE,114,0.0,7.0,71,0.00,-RA,OVC,0.00,0.0,WeatherDisplay:10.37,2013-08-23 19:01:00,
2013-08-23 20:31:00,70.3,60.9,29.84,SE,130,0.0,7.0,72,0.00,-RA,OVC,0.00,0.0,WeatherDisplay:10.37,2013-08-23 19:31:00,
2013-08-23 21:01:00,70.0,60.9,29.84,East,91,0.0,7.0,73,0.00,-RA,OVC,0.00,0.0,WeatherDisplay:10.37,2013-08-23 20:01:00,
2013-08-23 21:31:00,69.8,60.7,29.84,East,94,0.0,5.0,73,0.00,-RA,OVC,0.00,0.0,WeatherDisplay:10.37,2013-08-23 20:31:00,
2013-08-23 22:01:00,69.4,60.7,29.83,ESE,110,1.0,5.0,74,0.00,-RA,OVC,0.00,0.0,WeatherDisplay:10.37,2013-08-23 21:01:00,
2013-08-23 22:31:00,68.9,60.7,29.83,East,91,0.0,4.0,75,0.00,-RA,OVC,0.00,0.0,WeatherDisplay:10.37,2013-08-23 21:31:00,
2013-08-23 23:01:00,68.7,60.8,29.83,ESE,105,0.0,4.0,76,0.00,-RA,OVC,0.00,0.0,WeatherDisplay:10.37,2013-08-23 22:01:00,
2013-08-23 23:31:00,68.2,60.8,29.82,ESE,103,0.0,3.0,77,0.00,-RA,OVC,0.00,0.0,WeatherDisplay:10.37,2013-08-23 22:31:00,